createdAt,value
2023-04-29T00:01:59.963Z,2.10
2023-04-29T00:04:27.432Z,2.40
2023-04-29T00:06:56.514Z,2.13
2023-04-29T00:09:23.424Z,1.97
2023-04-29T00:11:51.271Z,1.93
2023-04-29T00:14:18.683Z,1.90
2023-04-29T00:16:45.607Z,1.90
2023-04-29T00:19:13.386Z,1.93
2023-04-29T00:21:40.297Z,2.03
2023-04-29T00:24:08.798Z,2.23
2023-04-29T00:26:35.802Z,2.33
2023-04-29T00:29:03.131Z,1.97
2023-04-29T00:31:31.152Z,2.17
2023-04-29T00:33:58.262Z,1.93
2023-04-29T00:36:26.509Z,2.03
2023-04-29T00:38:53.447Z,2.07
2023-04-29T00:41:22.135Z,1.80
2023-04-29T00:43:49.109Z,1.57
2023-04-29T00:46:16.141Z,1.70
2023-04-29T00:48:44.174Z,1.80
2023-04-29T00:51:11.877Z,2.27
2023-04-29T00:53:39.676Z,2.03
2023-04-29T00:56:08.201Z,1.90
2023-04-29T00:58:36.712Z,1.77
2023-04-29T01:01:04.596Z,2.03
2023-04-29T01:03:32.517Z,2.10
2023-04-29T01:06:12.166Z,2.20
2023-04-29T01:08:52.647Z,1.73
2023-04-29T01:11:24.074Z,2.17
2023-04-29T01:14:00.716Z,1.70
2023-04-29T01:16:37.934Z,1.97
2023-04-29T01:19:17.784Z,1.60
2023-04-29T01:21:49.056Z,1.90
2023-04-29T01:24:17.566Z,1.73
2023-04-29T01:26:54.438Z,1.80
2023-04-29T01:29:28.662Z,1.83
2023-04-29T01:32:05.233Z,2.10
2023-04-29T01:34:45.196Z,2.03
2023-04-29T01:37:19.720Z,2.03
2023-04-29T01:39:58.751Z,1.97
2023-04-29T01:42:40.018Z,1.90
2023-04-29T01:45:11.384Z,1.73
2023-04-29T01:47:39.800Z,1.80
2023-04-29T01:50:08.280Z,2.20
2023-04-29T01:52:35.752Z,1.90
2023-04-29T01:55:05.272Z,2.10
2023-04-29T01:57:32.866Z,1.90
2023-04-29T02:00:00.365Z,2.20
2023-04-29T02:02:27.395Z,2.43
2023-04-29T02:04:55.208Z,2.23
2023-04-29T02:07:23.076Z,2.07
2023-04-29T02:09:50.379Z,2.07
2023-04-29T02:12:19.411Z,2.00
2023-04-29T02:14:47.852Z,1.80
2023-04-29T02:17:15.406Z,2.30
2023-04-29T02:19:42.398Z,2.37
2023-04-29T02:22:12.868Z,2.30
2023-04-29T02:24:39.838Z,2.20
2023-04-29T02:27:07.325Z,3.20
2023-04-29T02:29:35.527Z,2.47
2023-04-29T02:32:03.078Z,2.50
2023-04-29T02:34:31.212Z,3.30
2023-04-29T02:36:58.634Z,2.77
2023-04-29T02:39:26.079Z,2.80
2023-04-29T02:41:56.205Z,2.50
2023-04-29T02:44:23.768Z,2.57
2023-04-29T02:46:52.587Z,3.20
2023-04-29T02:49:19.590Z,3.03
2023-04-29T02:51:46.759Z,3.20
2023-04-29T02:54:14.293Z,3.70
2023-04-29T02:56:41.751Z,4.07
2023-04-29T02:59:09.646Z,4.27
2023-04-29T03:04:24.641Z,5.20
2023-04-29T03:06:51.793Z,4.70
2023-04-29T03:09:19.402Z,4.97
2023-04-29T03:11:46.362Z,6.30
2023-04-29T03:14:13.345Z,6.10
2023-04-29T03:16:40.947Z,6.87
2023-04-29T03:19:08.052Z,6.27
2023-04-29T03:21:36.339Z,7.40
2023-04-29T03:24:03.549Z,7.07
2023-04-29T03:26:31.305Z,6.50
2023-04-29T03:28:58.954Z,6.30
2023-04-29T03:31:27.740Z,7.53
2023-04-29T03:33:55.287Z,6.77
2023-04-29T03:36:22.244Z,7.37
2023-04-29T03:38:50.655Z,7.40
2023-04-29T03:41:18.710Z,7.03
2023-04-29T03:43:46.600Z,7.97
2023-04-29T03:46:13.645Z,7.73
2023-04-29T03:48:41.446Z,8.07
2023-04-29T03:51:09.756Z,8.37
2023-04-29T03:53:37.096Z,7.40
2023-04-29T03:56:06.681Z,8.10
2023-04-29T03:58:33.820Z,8.03
2023-04-29T04:01:00.911Z,7.67
2023-04-29T04:03:28.282Z,7.67
2023-04-29T04:05:55.348Z,8.60
2023-04-29T04:08:22.783Z,8.83
2023-04-29T04:10:49.745Z,8.87
2023-04-29T04:13:19.086Z,7.30
2023-04-29T04:15:51.684Z,8.20
2023-04-29T04:18:19.131Z,8.30
2023-04-29T04:20:46.140Z,9.57
2023-04-29T04:23:13.644Z,8.73
2023-04-29T04:25:46.477Z,9.93
2023-04-29T04:28:13.903Z,8.60
2023-04-29T04:30:43.556Z,9.70
2023-04-29T04:33:10.686Z,8.90
2023-04-29T04:35:37.811Z,9.83
2023-04-29T04:38:05.425Z,9.40
2023-04-29T04:40:32.427Z,8.77
2023-04-29T04:42:59.397Z,9.53
2023-04-29T04:45:28.313Z,8.97
2023-04-29T04:47:57.047Z,10.37
2023-04-29T04:50:24.100Z,10.07
2023-04-29T04:52:51.466Z,8.60
2023-04-29T04:55:18.773Z,9.67
2023-04-29T04:57:46.404Z,8.60
2023-04-29T05:00:14.620Z,9.17
2023-04-29T05:02:42.008Z,9.40
2023-04-29T05:05:11.144Z,9.80
2023-04-29T05:07:38.144Z,8.20
2023-04-29T05:10:08.394Z,8.60
2023-04-29T05:12:35.452Z,8.10
2023-04-29T05:15:02.965Z,8.00
2023-04-29T05:17:30.442Z,7.80
2023-04-29T05:19:57.576Z,8.10
2023-04-29T05:22:26.428Z,7.57
2023-04-29T05:24:54.705Z,7.20
2023-04-29T05:27:21.887Z,7.67
2023-04-29T05:29:49.417Z,7.93
2023-04-29T05:32:17.047Z,7.40
2023-04-29T05:34:44.796Z,7.87
2023-04-29T05:37:11.794Z,7.10
2023-04-29T05:39:40.686Z,6.97
2023-04-29T05:42:07.667Z,7.07
2023-04-29T05:44:34.780Z,7.70
2023-04-29T05:47:02.289Z,7.00
2023-04-29T05:49:29.172Z,5.90
2023-04-29T05:51:56.340Z,5.67
2023-04-29T05:54:23.350Z,5.53
2023-04-29T05:56:52.106Z,5.63
2023-04-29T05:59:19.112Z,5.47
2023-04-29T06:01:47.206Z,4.90
2023-04-29T06:04:14.307Z,4.50
2023-04-29T06:06:41.980Z,4.60
2023-04-29T06:09:19.949Z,4.70
2023-04-29T06:11:56.676Z,4.20
2023-04-29T06:14:23.953Z,4.77
2023-04-29T06:16:51.796Z,4.67
2023-04-29T06:19:19.352Z,4.47
2023-04-29T06:21:46.929Z,4.30
2023-04-29T06:24:13.990Z,4.50
2023-04-29T06:26:41.313Z,4.53
2023-04-29T06:29:09.771Z,4.53
2023-04-29T06:31:36.901Z,5.00
2023-04-29T06:34:03.956Z,5.00
2023-04-29T06:36:32.419Z,4.90
2023-04-29T06:38:59.943Z,5.30
2023-04-29T06:41:27.293Z,5.67
2023-04-29T06:43:54.298Z,5.20
2023-04-29T06:46:22.603Z,4.53
2023-04-29T06:48:49.647Z,4.40
2023-04-29T06:51:17.309Z,5.50
2023-04-29T06:53:44.329Z,5.47
2023-04-29T06:56:11.321Z,5.37
2023-04-29T06:58:38.400Z,4.67
2023-04-29T07:01:07.167Z,5.70
2023-04-29T07:03:36.251Z,5.30
2023-04-29T07:06:03.499Z,5.37
2023-04-29T07:08:31.173Z,6.43
2023-04-29T07:10:59.520Z,6.20
2023-04-29T07:13:26.650Z,5.17
2023-04-29T07:15:53.659Z,5.87
2023-04-29T07:18:21.198Z,5.73
2023-04-29T07:20:51.168Z,6.40
2023-04-29T07:23:18.724Z,5.90
2023-04-29T07:25:45.727Z,5.80
2023-04-29T07:28:13.212Z,5.20
2023-04-29T07:30:40.273Z,5.47
2023-04-29T07:33:07.384Z,4.90
2023-04-29T07:35:34.443Z,4.90
2023-04-29T07:38:03.319Z,5.80
2023-04-29T07:40:30.319Z,5.60
2023-04-29T07:42:57.835Z,5.30
2023-04-29T07:45:24.818Z,5.83
2023-04-29T07:47:52.429Z,5.03
2023-04-29T07:50:19.979Z,5.40
2023-04-29T07:52:47.198Z,5.50
2023-04-29T07:55:16.404Z,5.57
2023-04-29T07:57:43.478Z,5.80
2023-04-29T08:00:12.031Z,5.73
2023-04-29T08:02:39.339Z,4.93
2023-04-29T08:05:07.264Z,5.33
2023-04-29T08:07:34.429Z,6.30
2023-04-29T08:10:01.374Z,5.47
2023-04-29T08:12:31.603Z,5.90
2023-04-29T08:14:58.657Z,5.13
2023-04-29T08:17:25.722Z,5.67
2023-04-29T08:19:53.402Z,4.70
2023-04-29T08:22:20.966Z,4.17
2023-04-29T08:24:48.566Z,5.60
2023-04-29T08:27:17.222Z,4.30
2023-04-29T08:29:46.126Z,4.50
2023-04-29T08:32:13.264Z,4.20
2023-04-29T08:34:42.336Z,4.10
2023-04-29T08:37:09.420Z,6.43
2023-04-29T08:39:37.223Z,5.70
2023-04-29T08:42:09.688Z,4.53
2023-04-29T08:44:41.469Z,4.37
2023-04-29T08:47:10.814Z,4.47
2023-04-29T08:49:40.766Z,3.90
2023-04-29T08:52:08.064Z,4.17
2023-04-29T08:54:36.250Z,4.53
2023-04-29T08:57:07.554Z,3.93
2023-04-29T08:59:36.921Z,3.60
2023-04-29T09:02:06.685Z,3.47
2023-04-29T09:04:48.586Z,3.70
2023-04-29T09:07:16.837Z,3.10
2023-04-29T09:09:44.943Z,3.50
2023-04-29T09:12:12.405Z,4.07
2023-04-29T09:17:45.465Z,3.90
2023-04-29T09:20:30.449Z,3.40
2023-04-29T09:23:03.531Z,3.63
2023-04-29T09:25:33.240Z,5.00
2023-04-29T09:28:17.050Z,3.13
2023-04-29T09:30:47.401Z,3.53
2023-04-29T09:33:16.816Z,3.60
2023-04-29T09:35:49.591Z,3.53
2023-04-29T09:38:17.051Z,3.63
2023-04-29T09:40:57.487Z,3.40
2023-04-29T09:43:26.976Z,3.30
2023-04-29T09:45:55.428Z,2.90
2023-04-29T09:48:23.097Z,3.10
2023-04-29T09:51:04.463Z,3.03
2023-04-29T09:53:32.869Z,3.37
2023-04-29T09:56:02.701Z,2.80
2023-04-29T09:58:34.457Z,2.47
2023-04-29T10:01:04.376Z,3.57
2023-04-29T10:03:35.090Z,3.87
2023-04-29T10:06:09.619Z,2.93
2023-04-29T10:08:37.573Z,3.23
2023-04-29T10:11:06.131Z,3.17
2023-04-29T10:13:38.969Z,2.80
2023-04-29T10:16:24.540Z,3.23
2023-04-29T10:18:56.520Z,3.60
2023-04-29T10:21:31.891Z,2.90
2023-04-29T10:24:00.259Z,3.20
2023-04-29T10:26:29.514Z,3.40
2023-04-29T10:29:01.548Z,5.07
2023-04-29T10:31:30.309Z,3.17
2023-04-29T10:33:59.188Z,2.73
2023-04-29T10:36:30.495Z,2.97
2023-04-29T10:39:02.555Z,3.17
2023-04-29T10:41:38.875Z,3.50
2023-04-29T10:44:06.147Z,3.00
2023-04-29T10:46:33.455Z,2.87
2023-04-29T10:49:06.455Z,3.00
2023-04-29T10:51:39.688Z,3.20
2023-04-29T10:54:13.876Z,2.73
2023-04-29T10:56:44.207Z,3.20
2023-04-29T10:59:16.174Z,2.80
2023-04-29T11:01:52.114Z,2.73
2023-04-29T11:04:22.165Z,2.80
2023-04-29T11:06:54.353Z,2.33
2023-04-29T11:09:26.820Z,3.10
2023-04-29T11:12:03.583Z,2.43
2023-04-29T11:14:37.445Z,2.40
2023-04-29T11:17:09.378Z,2.70
2023-04-29T11:22:30.742Z,2.60
2023-04-29T11:25:03.361Z,2.80
2023-04-29T11:27:33.377Z,2.87
2023-04-29T11:30:03.798Z,3.20
2023-04-29T11:32:33.621Z,4.37
2023-04-29T11:35:12.140Z,4.33
2023-04-29T11:37:42.541Z,2.40
2023-04-29T11:40:11.681Z,2.70
2023-04-29T11:42:44.005Z,3.57
2023-04-29T11:45:12.349Z,2.43
2023-04-29T11:47:45.470Z,2.17
2023-04-29T11:50:13.343Z,2.70
2023-04-29T11:52:41.834Z,2.57
2023-04-29T11:55:10.181Z,2.70
2023-04-29T11:57:37.624Z,2.77
2023-04-29T12:00:09.126Z,2.47
2023-04-29T12:02:39.536Z,2.50
2023-04-29T12:05:12.953Z,2.63
2023-04-29T12:07:45.346Z,2.77
2023-04-29T12:10:13.132Z,2.30
2023-04-29T12:12:42.903Z,3.00
2023-04-29T12:15:11.315Z,2.73
2023-04-29T12:17:39.451Z,2.97
2023-04-29T12:20:10.467Z,2.97
2023-04-29T12:22:38.447Z,2.47
2023-04-29T12:25:08.809Z,2.80
2023-04-29T12:27:36.919Z,6.80
2023-04-29T12:30:08.542Z,3.30
2023-04-29T12:32:37.013Z,3.00
2023-04-29T12:35:04.903Z,2.63
2023-04-29T12:37:33.336Z,3.07
2023-04-29T12:40:00.991Z,3.93
2023-04-29T12:42:37.346Z,2.93
2023-04-29T12:45:08.577Z,3.57
2023-04-29T12:47:36.951Z,2.80
2023-04-29T12:50:06.909Z,2.83
2023-04-29T12:52:36.405Z,3.13
2023-04-29T12:55:05.010Z,2.83
2023-04-29T12:57:33.600Z,3.30
2023-04-29T13:00:01.573Z,3.40
2023-04-29T13:02:31.607Z,3.43
2023-04-29T13:04:59.106Z,3.70
2023-04-29T13:07:26.741Z,3.37
2023-04-29T13:09:53.962Z,3.90
2023-04-29T13:12:23.184Z,3.20
2023-04-29T13:14:52.848Z,3.90
2023-04-29T13:20:10.664Z,3.53
2023-04-29T13:22:38.348Z,3.53
2023-04-29T13:27:51.254Z,3.60
2023-04-29T13:30:20.091Z,4.30
2023-04-29T13:32:53.714Z,3.83
2023-04-29T13:35:27.501Z,3.80
2023-04-29T13:37:55.139Z,4.47
2023-04-29T13:40:22.537Z,4.13
2023-04-29T13:43:02.115Z,4.80
2023-04-29T13:45:39.544Z,5.50
2023-04-29T13:48:28.436Z,4.43
2023-04-29T13:56:53.296Z,5.63
2023-04-29T14:02:15.004Z,6.17
2023-04-29T14:04:12.309Z,5.67
2023-04-29T14:06:40.667Z,5.87
2023-04-29T14:09:08.616Z,5.50
2023-04-29T14:11:36.893Z,5.50
2023-04-29T14:14:05.813Z,5.60
2023-04-29T14:16:37.819Z,5.10
2023-04-29T14:19:08.895Z,5.63
2023-04-29T14:21:36.419Z,5.40
2023-04-29T14:24:04.853Z,5.70
2023-04-29T14:26:32.217Z,5.53
2023-04-29T14:29:03.793Z,5.87
2023-04-29T14:31:41.750Z,6.10
2023-04-29T14:34:09.839Z,6.67
2023-04-29T14:36:37.325Z,5.50
2023-04-29T14:39:05.139Z,6.17
2023-04-29T14:41:32.960Z,6.47
2023-04-29T14:44:00.420Z,6.00
2023-04-29T14:46:28.983Z,6.37
2023-04-29T14:48:58.144Z,6.27
2023-04-29T14:51:28.433Z,5.70
2023-04-29T14:53:55.743Z,5.93
2023-04-29T14:56:23.128Z,5.50
2023-04-29T14:58:52.193Z,5.67
2023-04-29T15:01:19.637Z,5.87
2023-04-29T15:03:47.244Z,6.93
2023-04-29T15:06:16.041Z,5.43
2023-04-29T15:08:43.353Z,5.27
2023-04-29T15:11:10.636Z,5.10
2023-04-29T15:13:38.051Z,5.93
2023-04-29T15:16:09.540Z,8.30
2023-04-29T15:18:36.871Z,6.20
2023-04-29T15:21:04.562Z,5.60
2023-04-29T15:23:33.604Z,5.87
2023-04-29T15:26:01.176Z,5.17
2023-04-29T15:28:28.940Z,5.67
2023-04-29T15:30:56.478Z,6.03
2023-04-29T15:33:26.646Z,6.70
2023-04-29T15:35:56.071Z,7.33
2023-04-29T15:38:23.688Z,7.00
2023-04-29T15:40:57.292Z,6.53
2023-04-29T15:43:24.671Z,6.90
2023-04-29T15:45:54.490Z,6.53
2023-04-29T15:48:22.106Z,6.60
2023-04-29T15:50:49.281Z,7.00
2023-04-29T15:53:16.891Z,7.27
2023-04-29T15:55:44.414Z,7.00
2023-04-29T15:58:13.185Z,7.60
2023-04-29T16:00:41.104Z,7.93
2023-04-29T16:03:08.629Z,7.60
2023-04-29T16:05:37.483Z,7.67
2023-04-29T16:08:08.080Z,7.40
2023-04-29T16:10:38.416Z,8.10
2023-04-29T16:13:05.687Z,8.30
2023-04-29T16:15:35.301Z,13.27
2023-04-29T16:18:03.361Z,8.07
2023-04-29T16:20:31.317Z,8.70
2023-04-29T16:22:59.221Z,8.10
2023-04-29T16:25:26.446Z,7.47
2023-04-29T16:27:54.363Z,7.40
2023-04-29T16:30:22.067Z,6.87
2023-04-29T16:32:54.904Z,6.07
2023-04-29T16:35:26.799Z,7.03
2023-04-29T16:37:54.433Z,6.80
2023-04-29T16:40:22.339Z,6.83
2023-04-29T16:42:50.031Z,6.07
2023-04-29T16:45:18.380Z,6.70
2023-04-29T16:47:46.313Z,6.00
2023-04-29T16:50:17.481Z,6.60
2023-04-29T16:52:45.217Z,6.60
2023-04-29T16:55:13.748Z,5.43
2023-04-29T16:57:41.292Z,5.63
2023-04-29T17:00:13.539Z,5.87
2023-04-29T17:02:45.189Z,5.80
2023-04-29T17:05:15.737Z,5.47
2023-04-29T17:07:43.123Z,5.07
2023-04-29T17:10:11.899Z,5.40
2023-04-29T17:12:39.600Z,5.73
2023-04-29T17:15:08.666Z,5.17
2023-04-29T17:17:38.840Z,5.60
2023-04-29T17:20:08.484Z,5.80
2023-04-29T17:22:37.599Z,4.70
2023-04-29T17:25:09.898Z,4.90
2023-04-29T17:27:40.109Z,6.30
2023-04-29T17:30:10.293Z,10.53
2023-04-29T17:32:39.810Z,5.43
2023-04-29T17:35:09.261Z,5.97
2023-04-29T17:37:56.015Z,5.90
2023-04-29T17:40:25.942Z,6.57
2023-04-29T17:42:55.339Z,5.80
2023-04-29T17:45:23.098Z,5.70
2023-04-29T17:47:50.922Z,5.03
2023-04-29T17:50:18.563Z,6.77
2023-04-29T17:52:47.864Z,6.10
2023-04-29T17:55:15.382Z,6.00
2023-04-29T17:57:56.683Z,7.00
2023-04-29T18:00:24.950Z,5.90
2023-04-29T18:02:52.756Z,6.47
2023-04-29T18:05:21.129Z,5.40
2023-04-29T18:07:50.621Z,6.13
2023-04-29T18:10:18.190Z,5.87
2023-04-29T18:12:46.315Z,6.37
2023-04-29T18:15:17.061Z,6.90
2023-04-29T18:17:45.634Z,7.60
2023-04-29T18:20:14.496Z,7.13
2023-04-29T18:22:42.198Z,7.70
2023-04-29T18:25:12.149Z,7.70
2023-04-29T18:27:39.850Z,6.90
2023-04-29T18:30:09.233Z,13.70
2023-04-29T18:32:37.795Z,8.30
2023-04-29T18:35:06.745Z,6.97
2023-04-29T18:37:33.993Z,6.93
2023-04-29T18:40:01.668Z,10.10
2023-04-29T18:42:30.786Z,7.70
2023-04-29T18:44:57.957Z,6.60
2023-04-29T18:50:11.444Z,5.73
2023-04-29T18:52:41.914Z,7.30
2023-04-29T18:55:11.141Z,7.70
2023-04-29T18:57:39.758Z,6.27
2023-04-29T19:00:09.327Z,5.90
2023-04-29T19:02:37.911Z,7.17
2023-04-29T19:05:09.891Z,6.40
2023-04-29T19:07:37.063Z,7.13
2023-04-29T19:10:06.300Z,8.70
2023-04-29T19:12:33.656Z,7.00
2023-04-29T19:15:02.202Z,7.60
2023-04-29T19:17:29.453Z,7.60
2023-04-29T19:19:56.825Z,7.33
2023-04-29T19:22:24.758Z,6.90
2023-04-29T19:24:52.226Z,8.77
2023-04-29T19:27:19.503Z,7.00
2023-04-29T19:29:47.283Z,7.77
2023-04-29T19:32:16.064Z,8.87
2023-04-29T19:34:44.231Z,7.00
2023-04-29T19:37:11.672Z,7.60
2023-04-29T19:39:39.238Z,7.00
2023-04-29T19:42:06.501Z,7.73
2023-04-29T19:44:33.948Z,8.67
2023-04-29T19:47:01.722Z,7.20
2023-04-29T19:49:30.566Z,8.30
2023-04-29T19:51:57.824Z,8.10
2023-04-29T19:54:25.580Z,9.70
2023-04-29T19:56:52.830Z,8.73
2023-04-29T19:59:20.299Z,8.00
2023-04-29T20:01:48.005Z,8.57
2023-04-29T20:04:15.360Z,8.33
2023-04-29T20:06:44.414Z,7.43
2023-04-29T20:09:12.135Z,7.33
2023-04-29T20:11:39.191Z,17.50
2023-04-29T20:14:06.365Z,7.97
2023-04-29T20:16:35.488Z,7.77
2023-04-29T20:19:02.901Z,7.53
2023-04-29T20:21:30.154Z,8.40
2023-04-29T20:23:58.702Z,7.53
2023-04-29T20:26:27.272Z,7.50
2023-04-29T20:28:54.520Z,7.57
2023-04-29T20:31:24.133Z,8.83
2023-04-29T20:33:51.331Z,9.70
2023-04-29T20:36:18.984Z,8.77
2023-04-29T20:38:48.558Z,8.30
2023-04-29T20:44:01.692Z,7.83
2023-04-29T20:46:29.514Z,8.93
2023-04-29T20:48:56.484Z,8.80
2023-04-29T20:51:23.945Z,8.00
2023-04-29T20:56:36.991Z,9.60
2023-04-29T20:59:04.248Z,9.50
2023-04-29T21:01:31.266Z,9.80
2023-04-29T21:03:58.257Z,8.80
2023-04-29T21:06:26.982Z,11.33
2023-04-29T21:08:54.330Z,8.60
2023-04-29T21:11:21.994Z,8.20
2023-04-29T21:13:51.854Z,10.27
2023-04-29T21:16:19.662Z,8.63
2023-04-29T21:18:47.170Z,9.20
2023-04-29T21:21:14.219Z,8.70
2023-04-29T21:23:41.722Z,10.40
2023-04-29T21:26:08.683Z,11.90
2023-04-29T21:28:35.893Z,8.77
2023-04-29T21:31:05.316Z,10.70
2023-04-29T21:33:32.732Z,9.30
2023-04-29T21:35:59.800Z,13.07
2023-04-29T21:38:26.820Z,12.00
2023-04-29T21:40:53.798Z,11.33
2023-04-29T21:43:21.242Z,9.23
2023-04-29T21:45:48.437Z,8.93
2023-04-29T21:48:20.593Z,8.77
2023-04-29T21:50:47.928Z,10.00
2023-04-29T21:53:16.692Z,10.00
2023-04-29T21:55:44.298Z,8.90
2023-04-29T21:58:11.473Z,10.20
2023-04-29T22:03:27.215Z,8.83
2023-04-29T22:05:54.549Z,8.90
2023-04-29T22:08:22.139Z,11.33
2023-04-29T22:10:49.710Z,10.13
2023-04-29T22:13:16.718Z,23.87
2023-04-29T22:15:44.232Z,10.63
2023-04-29T22:18:11.231Z,10.57
2023-04-29T22:20:40.127Z,10.20
2023-04-29T22:23:07.115Z,10.53
2023-04-29T22:25:34.146Z,11.67
2023-04-29T22:28:01.183Z,11.20
2023-04-29T22:30:28.152Z,11.20
2023-04-29T22:32:55.167Z,9.27
2023-04-29T22:35:22.660Z,10.23
2023-04-29T22:37:50.974Z,8.57
2023-04-29T22:40:18.674Z,8.77
2023-04-29T22:42:46.116Z,10.33
2023-04-29T22:45:13.712Z,10.27
2023-04-29T22:47:40.709Z,11.70
2023-04-29T22:50:09.212Z,10.47
2023-04-29T22:52:36.480Z,9.90
2023-04-29T22:55:05.778Z,12.27
2023-04-29T22:57:32.759Z,11.00
2023-04-29T23:00:00.554Z,10.50
2023-04-29T23:02:29.134Z,10.90
2023-04-29T23:04:58.577Z,12.10
2023-04-29T23:07:26.227Z,9.73
2023-04-29T23:09:54.420Z,8.80
2023-04-29T23:12:24.499Z,8.53
2023-04-29T23:14:52.698Z,9.20
2023-04-29T23:17:19.608Z,10.67
2023-04-29T23:19:46.592Z,8.77
2023-04-29T23:22:13.623Z,9.63
2023-04-29T23:24:40.556Z,10.17
2023-04-29T23:27:07.544Z,8.53
2023-04-29T23:29:36.199Z,9.17
2023-04-29T23:32:03.849Z,11.90
2023-04-29T23:34:30.893Z,10.60
2023-04-29T23:36:58.484Z,9.00
2023-04-29T23:39:25.463Z,9.90
2023-04-29T23:41:52.394Z,12.63
2023-04-29T23:44:19.919Z,9.13
2023-04-29T23:46:48.838Z,9.07
2023-04-29T23:49:16.427Z,8.90
2023-04-29T23:51:43.395Z,8.60
2023-04-29T23:54:10.388Z,10.00
2023-04-29T23:56:37.492Z,9.10
2023-04-29T23:59:04.944Z,9.57
